Tropical Cyclones
[Index]
Main Index Home Page Stock Weather Photos Extreme Storms Discussion Storm News and Storm Chasing Reports Tropical Cyclones / Hurricanes / Typhoons Weather Data and Links Wild Fires / Bushfires Weather Observation Techniques Weather Picture Catalogue Tornado Pictures and Reports Stock Video Footage and DVDs for sale
Season 2011-2012 Tropical Cyclone JASMINE Track Map
Season 2011-2012 Summaries: [BoM-AU] [JTWC-AU] [JTWC-SIO] [JTWC-SPAC] [JTWC-SH]
<<- Previous TC | BoM 2011-2012 Season | Next TC ->>

click for intensity scale information  Lat/long Grid: Show Hide

 Date Labels: Show Hide

Bureau of Meteorology Tropical Cyclone Data

Name: JASMINE
Number: 957 / 201112_12

31 Jan 2012 18:00 UTC to 06 Feb 2012 12:00 UTC

    date/time    lat    long    hPa   cat  kts
2012-01-31 18   15.3   140.9    997         20          
2012-02-01 00   15.2   140.6    997         25          
2012-02-01 06   15.4   140.8    995    1    25          
2012-02-01 12   15.5   140.8    996         25          
2012-02-01 18   15.1   141.3    994    1    25          
2012-02-02 00   14.8   142.0    996         25          
2012-02-02 06   15.1   142.9    993    1    25          
2012-02-02 12   15.2   143.7    994    1    20          
2012-02-02 18   15.2   145.3    992    1    25          
2012-02-03 00   15.8   147.4    993    1    25          
2012-02-03 06   16.5   148.5    989    1    25          
2012-02-03 12   17.0   149.3    989    1    25          
2012-02-03 18   17.2   149.7    990    1    25          
2012-02-04 00   17.3   149.9    990    1    25          
2012-02-04 06   17.3   150.2    990    1    25          
2012-02-04 12   17.2   150.7    990    1    30          
2012-02-04 18   17.1   151.3    989    1    30          
2012-02-05 00   17.1   152.3    988    1    30          
2012-02-05 06   17.4   153.8    987    1    35          
2012-02-05 12   17.3   155.2    985    2    40          
2012-02-05 18   16.9   156.2    982    2    45          
2012-02-06 00   16.9   157.8    980    2    50          
2012-02-06 06   17.2   158.8    977    2    60          
2012-02-06 12   17.3   160.2                            
Winds are 10-min average.

Tropical cyclone tracks developed by Michael Bath using data from the Bureau of Meteorology and Google Maps.


[Australian Severe Weather index] [Copyright Notice] [Email Contacts] [Search This Site] [Privacy Policy]
Document: tropical_cyclone_jasmine.htm Updated: 29 June 2017